Time;durP1;ratioP1;P1;durP2;ratioP2;P2;SDS_P1;SDS_P2;PMS_P1;PMS_P2;Temp;Humidity;BMP_temperature;BMP_pressure;BME280_temperature;BME280_humidity;BME280_pressure;Samples;Min_cycle;Max_cycle;Signal;HPM_P1;HPM_P2
2022/05/16 00:01:52;;;;;;;;;;;;;;;;;;4975462;28;20140;-61
2022/05/16 00:04:17;;;;;;;;;;;;;;;;;;4966540;28;20719;-64
2022/05/16 00:06:45;;;;;;;;;;;;;;;;;;4977858;28;19917;-63
2022/05/16 00:09:10;;;;;;;;;;;;;;;;;;4973433;28;19988;-62
2022/05/16 00:11:35;;;;;;;;;;;;;;;;;;4992920;28;19921;-63
2022/05/16 00:14:01;;;;;;;;;;;;;;;;;;4981807;28;19928;-60
2022/05/16 00:16:26;;;;;;;;;;;;;;;;;;4996934;28;19918;-62
2022/05/16 00:18:56;;;;;;;;;;;;;;;;;;4976400;28;19917;-61
2022/05/16 00:21:23;;;;;;;;;;;;;;;;;;4978134;28;19922;-60
2022/05/16 00:23:49;;;;;;;;;;;;;;;;;;4982312;28;20007;-62
2022/05/16 00:26:16;;;;;;;;;;;;;;;;;;4975548;28;19932;-62
2022/05/16 00:28:44;;;;;;;;;;;;;;;;;;4972920;28;20029;-62
2022/05/16 00:31:12;;;;;;;;;;;;;;;;;;5006471;28;20516;-61
2022/05/16 00:33:37;;;;;;;;;;;;;;;;;;5007117;28;19937;-61
2022/05/16 00:36:02;;;;;;;;;;;;;;;;;;4974616;28;19929;-60
2022/05/16 00:38:28;;;;;;;;;;;;;;;;;;4976148;28;19925;-60
2022/05/16 00:40:55;;;;;;;;;;;;;;;;;;4975146;28;20386;-60
2022/05/16 00:43:21;;;;;;;;;;;;;;;;;;4993757;28;19921;-62
2022/05/16 00:45:48;;;;;;;;;;;;;;;;;;4975486;28;20026;-59
2022/05/16 00:48:14;;;;;;;;;;;;;;;;;;4991582;28;19922;-62
2022/05/16 00:53:30;;;;;;;;;;;;;;;;;;4973907;28;20897;-62
2022/05/16 00:55:55;;;;;;;;;;;;;;;;;;4997145;28;19944;-60
2022/05/16 00:58:21;;;;;;;;;;;;;;;;;;4978587;28;19933;-59
2022/05/16 01:00:48;;;;;;;;;;;;;;;;;;4980133;28;20392;-59
2022/05/16 01:05:59;;;;;;;;;;;;;;;;;;4977292;28;19922;-61
2022/05/16 01:08:25;;;;;;;;;;;;;;;;;;4982051;28;19964;-60
2022/05/16 01:10:51;;;;;;;;;;;;;;;;;;4976471;28;20917;-63
2022/05/16 01:13:18;;;;;;;;;;;;;;;;;;4997142;28;19961;-63
2022/05/16 01:15:49;;;;;;;;;;;;;;;;;;4983434;28;19918;-60
2022/05/16 01:18:16;;;;;;;;;;;;;;;;;;4984172;28;19922;-61
2022/05/16 01:20:46;;;;;;;;;;;;;;;;;;4977905;28;19918;-60
2022/05/16 01:23:12;;;;;;;;;;;;;;;;;;4979654;28;20012;-60
2022/05/16 01:25:37;;;;;;;;;;;;;;;;;;5008032;28;19936;-60
2022/05/16 01:28:06;;;;;;;;;;;;;;;;;;4977222;28;19917;-60
2022/05/16 01:30:34;;;;;;;;;;;;;;;;;;4986084;28;19918;-61
2022/05/16 01:33:02;;;;;;;;;;;;;;;;;;4979384;28;20056;-59
2022/05/16 01:35:27;;;;;;;;;;;;;;;;;;4967111;28;19922;-60
2022/05/16 01:40:37;;;;;;;;;;;;;;;;;;4984117;28;19937;-59
2022/05/16 01:43:07;;;;;;;;;;;;;;;;;;4984038;28;19921;-61
2022/05/16 01:45:32;;;;;;;;;;;;;;;;;;4979797;28;19921;-59
2022/05/16 01:48:00;;;;;;;;;;;;;;;;;;5009077;28;19967;-59
2022/05/16 01:50:28;;;;;;;;;;;;;;;;;;4977057;28;20004;-59
2022/05/16 01:52:53;;;;;;;;;;;;;;;;;;4981266;28;19926;-60
2022/05/16 01:55:20;;;;;;;;;;;;;;;;;;5000157;28;19964;-60
2022/05/16 01:57:48;;;;;;;;;;;;;;;;;;4975861;28;19926;-60
2022/05/16 02:00:13;;;;;;;;;;;;;;;;;;4981472;28;19925;-60
2022/05/16 02:02:41;;;;;;;;;;;;;;;;;;4978732;28;19928;-60
2022/05/16 02:05:09;;;;;;;;;;;;;;;;;;4992850;28;20447;-60
2022/05/16 02:07:34;;;;;;;;;;;;;;;;;;4977881;28;21219;-59
2022/05/16 02:10:02;;;;;;;;;;;;;;;;;;4977869;28;19924;-60
2022/05/16 02:12:28;;;;;;;;;;;;;;;;;;4979115;28;19980;-59
2022/05/16 02:14:53;;;;;;;;;;;;;;;;;;4977948;28;20549;-60
2022/05/16 02:17:20;;;;;;;;;;;;;;;;;;4977195;28;19925;-60
2022/05/16 02:19:48;;;;;;;;;;;;;;;;;;4993389;28;19928;-59
2022/05/16 02:25:00;;;;;;;;;;;;;;;;;;4987141;28;19967;-58
2022/05/16 02:27:28;;;;;;;;;;;;;;;;;;4981999;28;19989;-61
2022/05/16 02:29:53;;;;;;;;;;;;;;;;;;4980778;28;19918;-60
2022/05/16 02:32:18;;;;;;;;;;;;;;;;;;4989594;28;20085;-59
2022/05/16 02:34:44;;;;;;;;;;;;;;;;;;5004142;28;20012;-60
2022/05/16 02:37:12;;;;;;;;;;;;;;;;;;4979734;28;19976;-61
2022/05/16 02:39:44;;;;;;;;;;;;;;;;;;5013019;28;20016;-60
2022/05/16 02:42:12;;;;;;;;;;;;;;;;;;4996155;28;20700;-61
2022/05/16 02:44:42;;;;;;;;;;;;;;;;;;4996026;28;20033;-59
2022/05/16 02:47:09;;;;;;;;;;;;;;;;;;5012801;28;19988;-61
2022/05/16 02:49:35;;;;;;;;;;;;;;;;;;4986916;28;19931;-61
2022/05/16 02:52:00;;;;;;;;;;;;;;;;;;4987002;28;19925;-60
2022/05/16 02:54:25;;;;;;;;;;;;;;;;;;5010463;28;19941;-59
2022/05/16 02:56:53;;;;;;;;;;;;;;;;;;4979182;28;19940;-60
2022/05/16 02:59:23;;;;;;;;;;;;;;;;;;4980544;28;19921;-60
2022/05/16 03:01:48;;;;;;;;;;;;;;;;;;4982212;28;20451;-60
2022/05/16 03:04:13;;;;;;;;;;;;;;;;;;4999968;28;19922;-60
2022/05/16 03:06:39;;;;;;;;;;;;;;;;;;4980528;28;19941;-59
2022/05/16 03:09:04;;;;;;;;;;;;;;;;;;4977261;28;19932;-58
2022/05/16 03:11:30;;;;;;;;;;;;;;;;;;4975408;28;19917;-59
2022/05/16 03:13:55;;;;;;;;;;;;;;;;;;4977040;28;19953;-61
2022/05/16 03:16:22;;;;;;;;;;;;;;;;;;4975488;28;20317;-58
2022/05/16 03:18:47;;;;;;;;;;;;;;;;;;4975647;28;19925;-60
2022/05/16 03:21:13;;;;;;;;;;;;;;;;;;5008482;28;19960;-61
2022/05/16 03:23:40;;;;;;;;;;;;;;;;;;4980522;28;19928;-58
2022/05/16 03:26:06;;;;;;;;;;;;;;;;;;4975835;28;19926;-60
2022/05/16 03:28:33;;;;;;;;;;;;;;;;;;4999156;28;19970;-59
2022/05/16 03:31:01;;;;;;;;;;;;;;;;;;4976645;28;20576;-59
2022/05/16 03:33:29;;;;;;;;;;;;;;;;;;5009611;28;19928;-60
2022/05/16 03:35:57;;;;;;;;;;;;;;;;;;5006795;28;19951;-60
2022/05/16 03:41:08;;;;;;;;;;;;;;;;;;4976910;28;19996;-60
2022/05/16 03:43:34;;;;;;;;;;;;;;;;;;4976984;28;19926;-59
2022/05/16 03:45:59;;;;;;;;;;;;;;;;;;4975980;28;19972;-62
2022/05/16 03:48:29;;;;;;;;;;;;;;;;;;4976948;28;20021;-60
2022/05/16 03:50:54;;;;;;;;;;;;;;;;;;4983964;28;19933;-61
2022/05/16 03:53:20;;;;;;;;;;;;;;;;;;4978664;28;20008;-61
2022/05/16 03:55:47;;;;;;;;;;;;;;;;;;4975902;28;19932;-60
2022/05/16 03:58:13;;;;;;;;;;;;;;;;;;4983364;28;19936;-60
2022/05/16 04:00:38;;;;;;;;;;;;;;;;;;4982840;28;19926;-62
2022/05/16 04:03:05;;;;;;;;;;;;;;;;;;4968481;28;19921;-60
2022/05/16 04:05:31;;;;;;;;;;;;;;;;;;4974754;28;19925;-60
2022/05/16 04:07:59;;;;;;;;;;;;;;;;;;4997779;28;21126;-59
2022/05/16 04:10:26;;;;;;;;;;;;;;;;;;4989915;28;19917;-58
2022/05/16 04:12:54;;;;;;;;;;;;;;;;;;4977708;28;19976;-60
2022/05/16 04:15:21;;;;;;;;;;;;;;;;;;4974592;28;19921;-60
2022/05/16 04:17:46;;;;;;;;;;;;;;;;;;4977237;28;20809;-60
2022/05/16 04:20:11;;;;;;;;;;;;;;;;;;4976894;28;20633;-61
2022/05/16 04:22:37;;;;;;;;;;;;;;;;;;4977079;28;19926;-60
2022/05/16 04:25:03;;;;;;;;;;;;;;;;;;4976360;28;19921;-60
2022/05/16 04:27:28;;;;;;;;;;;;;;;;;;4975814;28;20274;-61
2022/05/16 04:29:56;;;;;;;;;;;;;;;;;;4997954;28;22108;-61
2022/05/16 04:32:23;;;;;;;;;;;;;;;;;;4981799;28;19961;-61
2022/05/16 04:34:51;;;;;;;;;;;;;;;;;;4996702;28;19929;-58
2022/05/16 04:37:16;;;;;;;;;;;;;;;;;;4978989;28;19929;-60
2022/05/16 04:39:42;;;;;;;;;;;;;;;;;;4980276;28;19926;-61
2022/05/16 04:44:51;;;;;;;;;;;;;;;;;;4980843;28;19928;-60
2022/05/16 04:47:21;;;;;;;;;;;;;;;;;;4996640;28;20500;-59
2022/05/16 04:49:47;;;;;;;;;;;;;;;;;;4976066;28;20013;-60
2022/05/16 04:52:15;;;;;;;;;;;;;;;;;;5011274;28;20012;-60
2022/05/16 04:54:40;;;;;;;;;;;;;;;;;;4979189;28;19929;-61
2022/05/16 04:57:06;;;;;;;;;;;;;;;;;;4979500;28;19921;-60
2022/05/16 04:59:33;;;;;;;;;;;;;;;;;;4981550;28;19964;-60
2022/05/16 05:01:59;;;;;;;;;;;;;;;;;;4999045;28;19935;-61
2022/05/16 05:04:26;;;;;;;;;;;;;;;;;;4981023;28;21686;-61
2022/05/16 05:06:54;;;;;;;;;;;;;;;;;;5001075;28;19925;-62
2022/05/16 05:09:19;;;;;;;;;;;;;;;;;;5011744;28;20751;-60
2022/05/16 05:14:34;;;;;;;;;;;;;;;;;;4980423;28;20750;-62
2022/05/16 05:17:00;;;;;;;;;;;;;;;;;;4981793;28;19926;-60
2022/05/16 05:19:25;;;;;;;;;;;;;;;;;;4983477;28;19933;-61
2022/05/16 05:21:50;;;;;;;;;;;;;;;;;;4981231;28;19921;-61
2022/05/16 05:24:19;;;;;;;;;;;;;;;;;;4984593;28;19928;-61
2022/05/16 05:26:47;;;;;;;;;;;;;;;;;;4978975;28;19922;-60
2022/05/16 05:29:12;;;;;;;;;;;;;;;;;;4984453;28;19972;-60
2022/05/16 05:31:39;;;;;;;;;;;;;;;;;;4982150;28;19931;-60
2022/05/16 05:34:05;;;;;;;;;;;;;;;;;;4996681;28;20464;-60
2022/05/16 05:36:31;;;;;;;;;;;;;;;;;;4980221;28;19959;-60
2022/05/16 05:39:01;;;;;;;;;;;;;;;;;;5001902;28;19961;-60
2022/05/16 05:41:29;;;;;;;;;;;;;;;;;;4994953;28;20440;-60
2022/05/16 05:43:54;;;;;;;;;;;;;;;;;;4980688;28;19925;-61
2022/05/16 05:46:19;;;;;;;;;;;;;;;;;;4983365;28;19969;-61
2022/05/16 05:48:45;;;;;;;;;;;;;;;;;;4990199;28;20125;-61
2022/05/16 05:51:12;;;;;;;;;;;;;;;;;;5014650;28;20004;-61
2022/05/16 05:53:41;;;;;;;;;;;;;;;;;;4984066;28;19940;-61
2022/05/16 05:56:07;;;;;;;;;;;;;;;;;;4983904;28;19971;-63
2022/05/16 05:58:33;;;;;;;;;;;;;;;;;;5004570;28;20637;-62
2022/05/16 06:01:00;;;;;;;;;;;;;;;;;;4982924;28;20415;-61
2022/05/16 06:03:25;;;;;;;;;;;;;;;;;;4982495;28;19921;-60
2022/05/16 06:05:50;;;;;;;;;;;;;;;;;;4983529;28;19933;-61
2022/05/16 06:08:18;;;;;;;;;;;;;;;;;;5002113;28;20068;-60
2022/05/16 06:10:44;;;;;;;;;;;;;;;;;;4979359;28;19922;-64
2022/05/16 06:13:11;;;;;;;;;;;;;;;;;;4983512;28;19922;-62
2022/05/16 06:15:39;;;;;;;;;;;;;;;;;;4987094;28;19973;-62
2022/05/16 06:18:04;;;;;;;;;;;;;;;;;;4979469;28;19936;-61
2022/05/16 06:20:30;;;;;;;;;;;;;;;;;;4979753;28;19999;-61
2022/05/16 06:22:58;;;;;;;;;;;;;;;;;;4984736;28;19929;-60
2022/05/16 06:25:33;;;;;;;;;;;;;;;;;;4978305;28;19951;-62
2022/05/16 06:28:01;;;;;;;;;;;;;;;;;;4978052;28;21087;-60
2022/05/16 06:30:26;;;;;;;;;;;;;;;;;;4980631;28;19922;-60
2022/05/16 06:32:52;;;;;;;;;;;;;;;;;;5001248;28;19921;-61
2022/05/16 06:35:19;;;;;;;;;;;;;;;;;;4995595;28;19921;-62
2022/05/16 06:37:47;;;;;;;;;;;;;;;;;;4980364;28;20296;-61
2022/05/16 06:40:15;;;;;;;;;;;;;;;;;;4983546;28;19917;-62
2022/05/16 06:42:43;;;;;;;;;;;;;;;;;;4978980;28;19918;-63
2022/05/16 06:45:08;;;;;;;;;;;;;;;;;;5010396;28;19937;-62
2022/05/16 06:47:36;;;;;;;;;;;;;;;;;;4977516;28;19918;-62
2022/05/16 06:50:02;;;;;;;;;;;;;;;;;;4992716;28;21863;-62
2022/05/16 06:52:27;;;;;;;;;;;;;;;;;;4975850;28;19925;-62
2022/05/16 06:54:55;;;;;;;;;;;;;;;;;;4981863;28;19926;-62
2022/05/16 06:57:25;;;;;;;;;;;;;;;;;;4979490;28;19926;-62
2022/05/16 06:59:53;;;;;;;;;;;;;;;;;;4982155;28;20574;-62
2022/05/16 07:02:18;;;;;;;;;;;;;;;;;;4976049;28;19994;-62
2022/05/16 07:04:46;;;;;;;;;;;;;;;;;;4978527;28;20591;-62
2022/05/16 07:07:13;;;;;;;;;;;;;;;;;;4999643;28;20266;-63
2022/05/16 07:09:39;;;;;;;;;;;;;;;;;;4980398;28;19933;-64
2022/05/16 07:12:05;;;;;;;;;;;;;;;;;;4978540;28;19949;-62
2022/05/16 07:14:30;;;;;;;;;;;;;;;;;;5010698;28;20224;-61
2022/05/16 07:16:55;;;;;;;;;;;;;;;;;;4976812;28;19947;-63
2022/05/16 07:19:21;;;;;;;;;;;;;;;;;;4978338;28;19922;-63
2022/05/16 07:21:49;;;;;;;;;;;;;;;;;;4981628;28;19933;-61
2022/05/16 07:24:17;;;;;;;;;;;;;;;;;;4989316;28;19928;-60
2022/05/16 07:29:27;;;;;;;;;;;;;;;;;;4982120;28;20063;-63
2022/05/16 07:31:53;;;;;;;;;;;;;;;;;;4981825;28;19940;-62
2022/05/16 07:34:18;;;;;;;;;;;;;;;;;;4976745;28;19997;-61
2022/05/16 07:36:48;;;;;;;;;;;;;;;;;;4974689;28;19921;-64
2022/05/16 07:39:14;;;;;;;;;;;;;;;;;;4980980;28;20297;-63
2022/05/16 07:41:39;;;;;;;;;;;;;;;;;;4981239;28;19925;-62
2022/05/16 07:44:05;;;;;;;;;;;;;;;;;;4982047;28;19918;-64
2022/05/16 07:46:30;;;;;;;;;;;;;;;;;;4981692;28;19967;-62
2022/05/16 07:48:56;;;;;;;;;;;;;;;;;;4981097;28;19921;-60
2022/05/16 07:51:21;;;;;;;;;;;;;;;;;;4980568;28;19949;-62
2022/05/16 07:53:46;;;;;;;;;;;;;;;;;;4982190;28;19928;-61
2022/05/16 07:56:14;;;;;;;;;;;;;;;;;;4986134;28;19949;-61
2022/05/16 07:58:39;;;;;;;;;;;;;;;;;;4982443;28;19926;-62
2022/05/16 08:01:05;;;;;;;;;;;;;;;;;;4978005;28;19976;-63
2022/05/16 08:03:30;;;;;;;;;;;;;;;;;;4984573;28;19921;-62
2022/05/16 08:05:56;;;;;;;;;;;;;;;;;;4985511;28;19921;-62
2022/05/16 08:11:09;;;;;;;;;;;;;;;;;;4989610;28;19964;-63
2022/05/16 08:13:37;;;;;;;;;;;;;;;;;;4993102;28;20016;-61
2022/05/16 08:16:02;;;;;;;;;;;;;;;;;;5001269;28;19967;-62
2022/05/16 08:18:28;;;;;;;;;;;;;;;;;;4986600;28;20250;-61
2022/05/16 08:20:56;;;;;;;;;;;;;;;;;;4983272;28;19925;-62
2022/05/16 08:23:21;;;;;;;;;;;;;;;;;;4987027;28;19921;-62
2022/05/16 08:25:46;;;;;;;;;;;;;;;;;;4984666;28;19967;-61
2022/05/16 08:28:12;;;;;;;;;;;;;;;;;;4986748;28;20366;-63
2022/05/16 08:30:37;;;;;;;;;;;;;;;;;;4986142;28;19928;-61
2022/05/16 08:33:02;;;;;;;;;;;;;;;;;;4986341;28;19964;-63
2022/05/16 08:35:27;;;;;;;;;;;;;;;;;;4985700;28;20293;-63
2022/05/16 08:40:37;;;;;;;;;;;;;;;;;;5015826;28;20311;-60
2022/05/16 08:43:02;;;;;;;;;;;;;;;;;;4999244;28;19928;-61
2022/05/16 08:45:27;;;;;;;;;;;;;;;;;;4992422;28;19933;-64
2022/05/16 08:47:53;;;;;;;;;;;;;;;;;;4984291;28;19917;-63
2022/05/16 08:50:18;;;;;;;;;;;;;;;;;;4981556;28;20467;-61
2022/05/16 08:52:44;;;;;;;;;;;;;;;;;;4982341;28;19925;-61
2022/05/16 08:55:13;;;;;;;;;;;;;;;;;;4985691;28;19921;-62
2022/05/16 08:57:41;;;;;;;;;;;;;;;;;;4997337;28;19929;-63
2022/05/16 09:00:06;;;;;;;;;;;;;;;;;;4984762;28;19928;-64
2022/05/16 09:02:31;;;;;;;;;;;;;;;;;;4985772;28;20539;-65
2022/05/16 09:04:57;;;;;;;;;;;;;;;;;;4983543;28;20345;-62
2022/05/16 09:07:24;;;;;;;;;;;;;;;;;;5016382;28;19926;-61
2022/05/16 09:09:52;;;;;;;;;;;;;;;;;;4988708;28;20300;-62
2022/05/16 09:12:20;;;;;;;;;;;;;;;;;;4985313;28;19933;-62
2022/05/16 09:14:48;;;;;;;;;;;;;;;;;;4982909;28;20057;-63
2022/05/16 09:17:14;;;;;;;;;;;;;;;;;;5003647;28;20015;-64
2022/05/16 09:19:39;;;;;;;;;;;;;;;;;;4988283;28;20378;-63
2022/05/16 09:22:08;;;;;;;;;;;;;;;;;;4981432;28;19925;-61
2022/05/16 09:24:36;;;;;;;;;;;;;;;;;;4982182;28;19945;-59
2022/05/16 09:27:01;;;;;;;;;;;;;;;;;;4983397;28;20035;-64
2022/05/16 09:29:31;;;;;;;;;;;;;;;;;;4981243;28;19918;-60
2022/05/16 09:31:56;;;;;;;;;;;;;;;;;;4981073;28;20258;-62
2022/05/16 09:34:22;;;;;;;;;;;;;;;;;;4983281;28;19928;-62
2022/05/16 09:36:48;;;;;;;;;;;;;;;;;;4984625;28;20419;-61
2022/05/16 09:39:14;;;;;;;;;;;;;;;;;;4982955;28;20408;-61
2022/05/16 09:41:39;;;;;;;;;;;;;;;;;;4981026;28;19922;-61
2022/05/16 09:44:04;;;;;;;;;;;;;;;;;;4982330;28;21874;-61
2022/05/16 09:46:32;;;;;;;;;;;;;;;;;;4983498;28;19921;-61
2022/05/16 09:49:00;;;;;;;;;;;;;;;;;;4987276;28;20269;-62
2022/05/16 09:51:30;;;;;;;;;;;;;;;;;;4981226;28;19924;-62
2022/05/16 09:53:55;;;;;;;;;;;;;;;;;;4982913;28;20015;-62
2022/05/16 09:56:20;;;;;;;;;;;;;;;;;;5014685;28;20569;-63
2022/05/16 09:58:48;;;;;;;;;;;;;;;;;;4984334;28;20056;-63
2022/05/16 10:01:22;;;;;;;;;;;;;;;;;;4984871;28;20318;-64
2022/05/16 10:03:47;;;;;;;;;;;;;;;;;;4983275;28;19967;-62
2022/05/16 10:06:15;;;;;;;;;;;;;;;;;;4997985;28;19948;-63
2022/05/16 10:08:40;;;;;;;;;;;;;;;;;;4988090;28;19992;-65
2022/05/16 10:11:06;;;;;;;;;;;;;;;;;;4983574;28;19928;-61
2022/05/16 10:13:31;;;;;;;;;;;;;;;;;;5002517;28;19926;-63
2022/05/16 10:15:56;;;;;;;;;;;;;;;;;;4982465;28;20474;-63
2022/05/16 10:18:22;;;;;;;;;;;;;;;;;;4984503;28;20507;-64
2022/05/16 10:20:47;;;;;;;;;;;;;;;;;;4986527;28;20742;-64
2022/05/16 10:23:13;;;;;;;;;;;;;;;;;;5013433;28;19945;-63
2022/05/16 10:25:38;;;;;;;;;;;;;;;;;;4990363;28;20525;-61
2022/05/16 10:28:04;;;;;;;;;;;;;;;;;;4979954;28;20044;-61
2022/05/16 10:30:29;;;;;;;;;;;;;;;;;;4984976;28;19929;-62
2022/05/16 10:35:41;;;;;;;;;;;;;;;;;;4988406;28;19979;-62
2022/05/16 10:38:07;;;;;;;;;;;;;;;;;;4981926;28;19985;-63
2022/05/16 10:40:32;;;;;;;;;;;;;;;;;;5003204;28;20072;-61
2022/05/16 10:42:58;;;;;;;;;;;;;;;;;;4984132;28;19925;-64
2022/05/16 10:45:23;;;;;;;;;;;;;;;;;;5002302;28;19918;-63
2022/05/16 10:47:48;;;;;;;;;;;;;;;;;;4982125;28;19921;-62
2022/05/16 10:50:14;;;;;;;;;;;;;;;;;;4979755;28;19968;-64
2022/05/16 10:52:39;;;;;;;;;;;;;;;;;;4988226;28;19917;-64
2022/05/16 10:55:05;;;;;;;;;;;;;;;;;;4996688;28;20298;-61
2022/05/16 10:57:32;;;;;;;;;;;;;;;;;;4997539;28;19965;-62
2022/05/16 10:59:58;;;;;;;;;;;;;;;;;;4990536;28;20084;-64
2022/05/16 11:02:23;;;;;;;;;;;;;;;;;;4990169;28;20448;-63
2022/05/16 11:04:49;;;;;;;;;;;;;;;;;;4981643;28;19925;-63
2022/05/16 11:07:15;;;;;;;;;;;;;;;;;;4989930;28;20586;-64
2022/05/16 11:09:41;;;;;;;;;;;;;;;;;;4983699;28;19925;-60
2022/05/16 11:12:09;;;;;;;;;;;;;;;;;;5013400;28;20020;-63
2022/05/16 11:14:36;;;;;;;;;;;;;;;;;;4981290;28;20024;-61
2022/05/16 11:17:01;;;;;;;;;;;;;;;;;;4988615;28;19917;-62
2022/05/16 11:19:27;;;;;;;;;;;;;;;;;;4996898;28;19929;-63
2022/05/16 11:21:53;;;;;;;;;;;;;;;;;;4987967;28;19918;-62
2022/05/16 11:24:18;;;;;;;;;;;;;;;;;;5004044;28;19922;-62
2022/05/16 11:26:46;;;;;;;;;;;;;;;;;;4981005;28;19945;-63
2022/05/16 11:29:18;;;;;;;;;;;;;;;;;;4982099;28;19929;-61
2022/05/16 11:31:43;;;;;;;;;;;;;;;;;;4983304;28;19918;-62
2022/05/16 11:34:08;;;;;;;;;;;;;;;;;;4978884;28;19996;-63
2022/05/16 11:36:36;;;;;;;;;;;;;;;;;;4980100;28;19978;-64
2022/05/16 11:39:02;;;;;;;;;;;;;;;;;;4980392;28;20060;-63
2022/05/16 11:41:27;;;;;;;;;;;;;;;;;;4979101;28;19932;-62
2022/05/16 11:43:54;;;;;;;;;;;;;;;;;;5001439;28;19960;-63
2022/05/16 11:46:21;;;;;;;;;;;;;;;;;;4979835;28;19960;-64
2022/05/16 11:48:49;;;;;;;;;;;;;;;;;;4971394;28;20116;-64
2022/05/16 11:51:14;;;;;;;;;;;;;;;;;;4979461;28;20490;-64
2022/05/16 11:53:40;;;;;;;;;;;;;;;;;;4988475;28;20440;-64
2022/05/16 12:01:33;;;;;;;;;;;;;;;;;;4981788;28;19918;-63
2022/05/16 12:03:59;;;;;;;;;;;;;;;;;;4981259;28;19944;-64
2022/05/16 12:06:24;;;;;;;;;;;;;;;;;;5004813;28;19951;-63
2022/05/16 12:08:50;;;;;;;;;;;;;;;;;;4979256;28;20514;-64
2022/05/16 12:11:16;;;;;;;;;;;;;;;;;;4988362;28;19921;-64
2022/05/16 12:13:42;;;;;;;;;;;;;;;;;;4982771;28;20388;-63
2022/05/16 12:16:07;;;;;;;;;;;;;;;;;;4980236;28;19933;-64
2022/05/16 12:18:35;;;;;;;;;;;;;;;;;;4981039;28;20545;-62
2022/05/16 12:21:00;;;;;;;;;;;;;;;;;;4980862;28;19957;-62
2022/05/16 12:23:26;;;;;;;;;;;;;;;;;;4981536;28;20028;-62
2022/05/16 12:25:53;;;;;;;;;;;;;;;;;;4980377;28;19930;-63
2022/05/16 12:28:23;;;;;;;;;;;;;;;;;;4979274;28;19928;-64
2022/05/16 12:30:48;;;;;;;;;;;;;;;;;;4982082;28;19980;-64
2022/05/16 12:33:14;;;;;;;;;;;;;;;;;;5012705;28;20535;-63
2022/05/16 12:35:39;;;;;;;;;;;;;;;;;;4984066;28;19921;-63
2022/05/16 12:38:04;;;;;;;;;;;;;;;;;;4987946;28;20665;-64
2022/05/16 12:40:29;;;;;;;;;;;;;;;;;;4978669;28;19926;-64
2022/05/16 12:42:55;;;;;;;;;;;;;;;;;;4971567;28;19924;-63
2022/05/16 12:45:23;;;;;;;;;;;;;;;;;;4995955;28;20495;-63
2022/05/16 12:47:48;;;;;;;;;;;;;;;;;;4983401;28;19926;-64
2022/05/16 12:50:16;;;;;;;;;;;;;;;;;;4987508;28;19921;-63
2022/05/16 12:52:42;;;;;;;;;;;;;;;;;;4999275;28;19921;-63
2022/05/16 12:55:10;;;;;;;;;;;;;;;;;;4972716;28;19925;-63
2022/05/16 12:57:38;;;;;;;;;;;;;;;;;;4984790;28;19918;-63
2022/05/16 13:00:04;;;;;;;;;;;;;;;;;;4984568;28;19983;-64
2022/05/16 13:02:29;;;;;;;;;;;;;;;;;;4992197;28;19924;-63
2022/05/16 13:04:55;;;;;;;;;;;;;;;;;;4999902;28;20071;-63
2022/05/16 13:07:20;;;;;;;;;;;;;;;;;;4992571;28;21827;-64
2022/05/16 13:09:48;;;;;;;;;;;;;;;;;;4993089;28;19990;-65
2022/05/16 13:12:16;;;;;;;;;;;;;;;;;;4982734;28;19957;-64
2022/05/16 13:14:42;;;;;;;;;;;;;;;;;;4983674;28;20111;-64
2022/05/16 13:17:08;;;;;;;;;;;;;;;;;;4982835;28;20484;-63
2022/05/16 13:19:36;;;;;;;;;;;;;;;;;;4980721;28;19963;-63
2022/05/16 13:22:01;;;;;;;;;;;;;;;;;;4982605;28;20024;-63
2022/05/16 13:24:29;;;;;;;;;;;;;;;;;;5015177;28;20067;-64
2022/05/16 13:29:38;;;;;;;;;;;;;;;;;;4984436;28;19967;-64
2022/05/16 13:32:04;;;;;;;;;;;;;;;;;;5016234;28;19921;-63
2022/05/16 13:34:32;;;;;;;;;;;;;;;;;;5004749;28;20204;-64
2022/05/16 13:36:59;;;;;;;;;;;;;;;;;;4984052;28;19925;-63
2022/05/16 13:39:26;;;;;;;;;;;;;;;;;;4990766;28;19921;-64
2022/05/16 13:41:51;;;;;;;;;;;;;;;;;;4982682;28;19925;-63
2022/05/16 13:44:17;;;;;;;;;;;;;;;;;;4983751;28;19922;-62
2022/05/16 13:46:42;;;;;;;;;;;;;;;;;;4984030;28;20380;-62
2022/05/16 13:49:11;;;;;;;;;;;;;;;;;;4983302;28;19973;-64
2022/05/16 13:51:36;;;;;;;;;;;;;;;;;;4981610;28;19921;-63
2022/05/16 13:54:01;;;;;;;;;;;;;;;;;;4984134;28;20011;-64
2022/05/16 13:56:27;;;;;;;;;;;;;;;;;;4984669;28;19918;-63
2022/05/16 13:58:52;;;;;;;;;;;;;;;;;;4983694;28;20000;-64
2022/05/16 14:01:20;;;;;;;;;;;;;;;;;;4982852;28;19928;-64
2022/05/16 14:03:47;;;;;;;;;;;;;;;;;;5000977;28;19917;-63
2022/05/16 14:06:12;;;;;;;;;;;;;;;;;;5006123;28;19960;-63
2022/05/16 14:08:38;;;;;;;;;;;;;;;;;;5005279;28;19934;-64
2022/05/16 14:11:04;;;;;;;;;;;;;;;;;;4990584;28;19960;-63
2022/05/16 14:13:33;;;;;;;;;;;;;;;;;;4984793;28;19963;-61
2022/05/16 14:16:01;;;;;;;;;;;;;;;;;;4987396;28;19921;-63
2022/05/16 14:18:26;;;;;;;;;;;;;;;;;;4990117;28;19971;-63
2022/05/16 14:20:52;;;;;;;;;;;;;;;;;;5003057;28;19929;-63
2022/05/16 14:23:17;;;;;;;;;;;;;;;;;;4982336;28;19936;-63
2022/05/16 14:25:43;;;;;;;;;;;;;;;;;;4980767;28;20341;-63
2022/05/16 14:28:10;;;;;;;;;;;;;;;;;;4989695;28;19952;-63
2022/05/16 14:30:36;;;;;;;;;;;;;;;;;;5013245;28;20305;-63
2022/05/16 14:33:06;;;;;;;;;;;;;;;;;;4984979;28;19979;-62
2022/05/16 14:35:31;;;;;;;;;;;;;;;;;;5005379;28;19917;-62
2022/05/16 14:37:57;;;;;;;;;;;;;;;;;;5005578;28;19933;-63
2022/05/16 14:40:22;;;;;;;;;;;;;;;;;;4983595;28;19961;-62
2022/05/16 14:42:49;;;;;;;;;;;;;;;;;;4979523;28;19922;-63
2022/05/16 14:45:14;;;;;;;;;;;;;;;;;;4982920;28;20003;-63
2022/05/16 14:47:39;;;;;;;;;;;;;;;;;;4978595;28;20096;-62
2022/05/16 14:50:07;;;;;;;;;;;;;;;;;;4982987;28;19999;-62
2022/05/16 14:52:35;;;;;;;;;;;;;;;;;;4980784;28;21235;-62
2022/05/16 14:55:01;;;;;;;;;;;;;;;;;;4981189;28;20070;-62
2022/05/16 14:57:26;;;;;;;;;;;;;;;;;;4984339;28;20384;-62
2022/05/16 14:59:51;;;;;;;;;;;;;;;;;;4988163;28;20435;-62
2022/05/16 15:05:01;;;;;;;;;;;;;;;;;;4983035;28;19936;-63
2022/05/16 15:07:28;;;;;;;;;;;;;;;;;;4985497;28;20381;-64
2022/05/16 15:09:54;;;;;;;;;;;;;;;;;;4982494;28;20582;-61
2022/05/16 15:12:20;;;;;;;;;;;;;;;;;;4981503;28;20444;-62
2022/05/16 15:14:48;;;;;;;;;;;;;;;;;;4987148;28;19925;-62
2022/05/16 15:17:13;;;;;;;;;;;;;;;;;;4980671;28;19933;-61
2022/05/16 15:19:41;;;;;;;;;;;;;;;;;;4971856;28;20324;-60
2022/05/16 15:22:09;;;;;;;;;;;;;;;;;;4988717;28;20369;-61
2022/05/16 15:24:37;;;;;;;;;;;;;;;;;;4982505;28;19953;-61
2022/05/16 15:27:03;;;;;;;;;;;;;;;;;;4988945;28;20492;-61
2022/05/16 15:29:28;;;;;;;;;;;;;;;;;;5012008;28;19925;-61
2022/05/16 15:31:54;;;;;;;;;;;;;;;;;;4982554;28;19952;-62
2022/05/16 15:34:24;;;;;;;;;;;;;;;;;;4980985;28;19935;-64
2022/05/16 15:36:50;;;;;;;;;;;;;;;;;;4973359;28;19917;-61
2022/05/16 15:39:15;;;;;;;;;;;;;;;;;;4982960;28;20558;-63
2022/05/16 15:41:41;;;;;;;;;;;;;;;;;;4989174;28;19928;-60
2022/05/16 15:44:08;;;;;;;;;;;;;;;;;;4971079;28;19922;-61
2022/05/16 15:46:37;;;;;;;;;;;;;;;;;;4982067;28;20079;-61
2022/05/16 15:49:05;;;;;;;;;;;;;;;;;;4982268;28;21839;-60
2022/05/16 15:51:34;;;;;;;;;;;;;;;;;;4980923;28;19975;-59
2022/05/16 15:54:03;;;;;;;;;;;;;;;;;;4997676;28;20004;-63
2022/05/16 15:56:28;;;;;;;;;;;;;;;;;;4985824;28;19927;-61
2022/05/16 15:58:56;;;;;;;;;;;;;;;;;;4981236;28;20422;-62
2022/05/16 16:01:21;;;;;;;;;;;;;;;;;;4982237;28;19961;-61
2022/05/16 16:09:17;;;;;;;;;;;;;;;;;;4981209;28;19921;-60
2022/05/16 16:11:48;;;;;;;;;;;;;;;;;;4981741;28;21914;-60
2022/05/16 16:14:13;;;;;;;;;;;;;;;;;;4980867;28;20597;-63
2022/05/16 16:16:41;;;;;;;;;;;;;;;;;;5005132;28;19925;-60
2022/05/16 16:19:06;;;;;;;;;;;;;;;;;;4995653;28;19925;-61
2022/05/16 16:21:34;;;;;;;;;;;;;;;;;;4969140;28;19932;-61
2022/05/16 16:24:00;;;;;;;;;;;;;;;;;;5003632;28;20564;-60
2022/05/16 16:26:27;;;;;;;;;;;;;;;;;;4986639;28;19949;-61
2022/05/16 16:28:52;;;;;;;;;;;;;;;;;;4991324;28;19921;-61
2022/05/16 16:31:18;;;;;;;;;;;;;;;;;;4976299;28;19972;-62
2022/05/16 16:33:43;;;;;;;;;;;;;;;;;;4993242;28;19922;-63
2022/05/16 16:36:09;;;;;;;;;;;;;;;;;;4984487;28;20496;-63
2022/05/16 16:38:37;;;;;;;;;;;;;;;;;;4985942;28;19925;-64
2022/05/16 16:41:03;;;;;;;;;;;;;;;;;;4992002;28;19921;-61
2022/05/16 16:43:28;;;;;;;;;;;;;;;;;;4983084;28;20916;-60
2022/05/16 16:45:56;;;;;;;;;;;;;;;;;;4985371;28;19917;-63
2022/05/16 16:48:28;;;;;;;;;;;;;;;;;;4992955;28;19925;-60
2022/05/16 16:50:54;;;;;;;;;;;;;;;;;;4991027;28;19973;-61
2022/05/16 16:58:50;;;;;;;;;;;;;;;;;;4984169;28;19933;-60
2022/05/16 17:01:15;;;;;;;;;;;;;;;;;;4986608;28;19957;-60
2022/05/16 17:03:41;;;;;;;;;;;;;;;;;;4992771;28;19995;-59
2022/05/16 17:06:09;;;;;;;;;;;;;;;;;;5002785;28;19945;-60
2022/05/16 17:08:37;;;;;;;;;;;;;;;;;;4990698;28;19921;-60
2022/05/16 17:11:03;;;;;;;;;;;;;;;;;;4984566;28;19965;-61
2022/05/16 17:13:33;;;;;;;;;;;;;;;;;;4992517;28;19933;-60
2022/05/16 17:15:58;;;;;;;;;;;;;;;;;;5001989;28;20012;-61
2022/05/16 17:18:24;;;;;;;;;;;;;;;;;;4985887;28;19988;-60
2022/05/16 17:20:49;;;;;;;;;;;;;;;;;;4973830;28;19928;-61
2022/05/16 17:23:15;;;;;;;;;;;;;;;;;;4983039;28;19926;-61
2022/05/16 17:25:40;;;;;;;;;;;;;;;;;;4997999;28;19973;-62
2022/05/16 17:28:05;;;;;;;;;;;;;;;;;;4982681;28;19995;-60
2022/05/16 17:30:34;;;;;;;;;;;;;;;;;;5002786;28;19992;-60
2022/05/16 17:32:59;;;;;;;;;;;;;;;;;;4982032;28;19969;-60